WetterOnline ( https://www.wetteronline.de )

Wetter aktuell St. Peter-Ording

Aktuelles Wetter: St. Peter-Ording (11m)

6-stündlich | Neueste Meldungen
Ortszeit Temperatur Wetter
Fr, 06.08. 2:00 15.1° C leicht bewölkt
Do, 05.08. 20:00 18.5° C bewölkt
Do, 05.08. 14:00 21.8° C bewölkt
Do, 05.08. 8:00 15.6° C leicht bewölkt
Do, 05.08. 2:00 14.7° C bewölkt
Mi, 04.08. 20:00 19.5° C wolkig
Mi, 04.08. 14:00 19.6° C wolkenlos
Mi, 04.08. 8:00 14.3° C wolkenlos
Ortszeit Temperatur Wetter
Fr, 06.08. 3:30 14.7° C wolkig
Fr, 06.08. 3:20 14.7° C wolkig
Fr, 06.08. 3:10 14.7° C leicht bewölkt
Fr, 06.08. 3:00 14.8° C wolkenlos
Fr, 06.08. 2:50 14.8° C wolkenlos
Fr, 06.08. 2:40 14.8° C wolkenlos
Fr, 06.08. 2:30 15.0° C wolkenlos
Fr, 06.08. 2:00 15.1° C leicht bewölkt
Fr, 06.08. 1:30 15.0° C wolkenlos
Fr, 06.08. 1:00 14.8° C leicht bewölkt
Fr, 06.08. 0:30 15.2° C wolkig
Ortszeit Relative Feuchte Sichtweite
Fr, 06.08. 2:00 93% 30 km
Do, 05.08. 20:00 80% 55 km
Do, 05.08. 14:00 63% 60 km
Do, 05.08. 8:00 83% 50 km
Do, 05.08. 2:00 88% 45 km
Mi, 04.08. 20:00 60% 55 km
Mi, 04.08. 14:00 56% 60 km
Mi, 04.08. 8:00 82% 55 km
Ortszeit Relative Feuchte Sichtweite
Fr, 06.08. 3:30 93% 35 km
Fr, 06.08. 3:20 93% -
Fr, 06.08. 3:10 93% -
Fr, 06.08. 3:00 93% 30 km
Fr, 06.08. 2:50 93% -
Fr, 06.08. 2:40 93% -
Fr, 06.08. 2:30 93% 28 km
Fr, 06.08. 2:00 93% 30 km
Fr, 06.08. 1:30 92% 30 km
Fr, 06.08. 1:00 91% 35 km
Fr, 06.08. 0:30 90% 35 km
Ortszeit Niederschlagsmenge Niederschlagsart
Fr, 06.08. 2:00 0.0 l/m2 in 6 Std. -
Do, 05.08. 20:00 15 l/m2 in 12 Std. Regen
Do, 05.08. 14:00 0.0 l/m2 in 6 Std. -
Do, 05.08. 8:00 0.0 l/m2 in 12 Std. -
Do, 05.08. 2:00 0.0 l/m2 in 6 Std. -
Mi, 04.08. 20:00 0.0 l/m2 in 12 Std. -
Mi, 04.08. 14:00 0.0 l/m2 in 6 Std. -
Mi, 04.08. 8:00 0.0 l/m2 in 12 Std. -
Ortszeit Niederschlagsmenge Niederschlagsart
Fr, 06.08. 3:30 0.0 l/m2 in 1 Std. -
Fr, 06.08. 3:20 keine Meldung -
Fr, 06.08. 3:10 keine Meldung -
Fr, 06.08. 3:00 0.0 l/m2 in 1 Std. -
Fr, 06.08. 2:50 keine Meldung -
Fr, 06.08. 2:40 keine Meldung -
Fr, 06.08. 2:30 0.0 l/m2 in 1 Std. -
Fr, 06.08. 2:00 0.0 l/m2 in 1 Std. -
Fr, 06.08. 1:30 0.0 l/m2 in 1 Std. -
Fr, 06.08. 1:00 0.0 l/m2 in 1 Std. -
Fr, 06.08. 0:30 0.0 l/m2 in 1 Std. -
Ortszeit Stärke Spitze Richtung
km/h Bft. km/h Grad Sektor
Fr, 06.08. 2:00 13 3 20 110° O
Do, 05.08. 20:00 14 3 54 80° O
Do, 05.08. 14:00 18 3 29 90° O
Do, 05.08. 8:00 14 3 22 100° O
Do, 05.08. 2:00 7 2 25 60° NO
Mi, 04.08. 20:00 18 3 29 340° N
Mi, 04.08. 14:00 19 3 26 340° N
Mi, 04.08. 8:00 4 1 11 80° O
Ortszeit Stärke Spitze Richtung
km/h Bft. km/h Grad Sektor
Fr, 06.08. 3:30 13 3 20 110° O
Fr, 06.08. 3:20 13 3 - 110° O
Fr, 06.08. 3:10 13 3 - 110° O
Fr, 06.08. 3:00 14 3 22 110° O
Fr, 06.08. 2:50 14 3 - 110° O
Fr, 06.08. 2:40 13 3 - 110° O
Fr, 06.08. 2:30 13 3 20 110° O
Fr, 06.08. 2:00 13 3 20 110° O
Fr, 06.08. 1:30 14 3 18 100° O
Fr, 06.08. 1:00 13 3 17 90° O
Fr, 06.08. 0:30 11 2 14 100° O
Ortszeit Untergrenze Bedeckung Gattung
total tief tief mittel hoch
Fr, 06.08. 2:00 3900 m 4/8 4/8 - - -
Do, 05.08. 20:00 3000 m 7/8 7/8 - - -
Do, 05.08. 14:00 2700 m 8/8 7/8 - - -
Do, 05.08. 8:00 2700 m 4/8 4/8 - - -
Do, 05.08. 2:00 1200 m 7/8 7/8 - - -
Mi, 04.08. 20:00 2100 m 8/8 8/8 - - -
Mi, 04.08. 14:00 - 0/8 0/8 - - -
Mi, 04.08. 8:00 - 0/8 0/8 - - -
Ortszeit Bedeckungsgrad in Achtel und Wolkenuntergrenze
Fr, 06.08. 3:30 5(3000m)
Fr, 06.08. 3:20 5(3000m)
Fr, 06.08. 3:10 3(3000m)
Fr, 06.08. 3:00 keine Wolken
Fr, 06.08. 2:50 keine Wolken
Fr, 06.08. 2:40 keine Wolken
Fr, 06.08. 2:30 keine Wolken
Fr, 06.08. 2:00 4(3900m) 4(4500m)
Fr, 06.08. 1:30 2(3600m) 2(4500m)
Fr, 06.08. 1:00 4(3600m)
Fr, 06.08. 0:30 6(3600m)
Ortszeit Luftdruck NN (hPa) Tendenz (hPa in 3 Std.)
Fr, 06.08. 2:00 1006 - 1,8
Do, 05.08. 20:00 1008 - 1,4
Do, 05.08. 14:00 1010 - 1,3
Do, 05.08. 8:00 1012 - 1,0
Do, 05.08. 2:00 1014 - 0,5
Mi, 04.08. 20:00 1014 - 0,6
Mi, 04.08. 14:00 1015 - 0,4
Mi, 04.08. 8:00 1015 + 0,7
Ortszeit Luftdruck NN (hPa) Tendenz (hPa in 3 Std.)
Fr, 06.08. 3:30 1005 - 1,5
Fr, 06.08. 3:20 1005 keine Meldung
Fr, 06.08. 3:10 1005 keine Meldung
Fr, 06.08. 3:00 1005 - 1,5
Fr, 06.08. 2:50 1005 keine Meldung
Fr, 06.08. 2:40 1005 keine Meldung
Fr, 06.08. 2:30 1005 - 1,6
Fr, 06.08. 2:00 1006 - 1,8
Fr, 06.08. 1:30 1006 - 1,9
Fr, 06.08. 1:00 1006 - 1,5
Fr, 06.08. 0:30 1007 - 1,3
Ortszeit Schneehöhe (cm)
Fr, 06.08. 2:00 -
Do, 05.08. 20:00 -
Do, 05.08. 14:00 -
Do, 05.08. 8:00 -
Do, 05.08. 2:00 -
Mi, 04.08. 20:00 -
Mi, 04.08. 14:00 -
Mi, 04.08. 8:00 -
Ortszeit Schneehöhe (cm)
Fr, 06.08. 3:30 -
Fr, 06.08. 3:20 -
Fr, 06.08. 3:10 -
Fr, 06.08. 3:00 -
Fr, 06.08. 2:50 -
Fr, 06.08. 2:40 -
Fr, 06.08. 2:30 -
Fr, 06.08. 2:00 -
Fr, 06.08. 1:30 -
Fr, 06.08. 1:00 -
Fr, 06.08. 0:30 -
Link zu dieser Seite / Seite empfehlen

Das Wetter in ...